createdAt,value
2024-05-09T00:01:59.167Z,58.90
2024-05-09T00:04:30.609Z,57.12
2024-05-09T00:07:01.438Z,57.05
2024-05-09T00:09:33.030Z,57.84
2024-05-09T00:12:04.094Z,57.44
2024-05-09T00:14:35.644Z,57.47
2024-05-09T00:17:10.058Z,57.18
2024-05-09T00:19:42.798Z,59.55
2024-05-09T00:22:13.675Z,58.76
2024-05-09T00:24:45.011Z,58.69
2024-05-09T00:27:15.904Z,57.59
2024-05-09T00:29:47.213Z,57.91
2024-05-09T00:32:20.982Z,57.02
2024-05-09T00:34:53.749Z,57.01
2024-05-09T00:37:24.785Z,57.78
2024-05-09T00:39:56.536Z,59.40
2024-05-09T00:42:27.500Z,59.20
2024-05-09T00:44:58.759Z,58.70
2024-05-09T00:47:32.518Z,59.25
2024-05-09T00:50:07.636Z,59.69
2024-05-09T00:52:43.986Z,60.04
2024-05-09T00:55:16.189Z,58.87
2024-05-09T00:57:47.843Z,58.18
2024-05-09T01:00:27.124Z,60.58
2024-05-09T01:03:10.970Z,60.42
2024-05-09T01:05:44.584Z,60.50
2024-05-09T01:08:16.695Z,60.14
2024-05-09T01:10:48.896Z,62.16
2024-05-09T01:13:19.839Z,60.48
2024-05-09T01:15:54.014Z,60.17
2024-05-09T01:18:27.827Z,61.74
2024-05-09T01:20:59.148Z,61.28
2024-05-09T01:23:32.781Z,61.56
2024-05-09T01:26:04.121Z,63.01
2024-05-09T01:28:34.963Z,61.36
2024-05-09T01:31:06.471Z,62.07
2024-05-09T01:33:37.683Z,61.68
2024-05-09T01:36:09.723Z,61.58
2024-05-09T01:38:43.201Z,59.45
2024-05-09T01:41:14.521Z,58.96
2024-05-09T01:43:45.432Z,60.04
2024-05-09T01:46:17.669Z,59.24
2024-05-09T01:48:49.084Z,60.87
2024-05-09T01:51:20.764Z,59.23
2024-05-09T01:53:56.978Z,59.36
2024-05-09T01:56:28.402Z,60.48
2024-05-09T01:58:59.442Z,58.90
2024-05-09T02:01:30.808Z,59.23
2024-05-09T02:04:21.819Z,59.26
2024-05-09T02:06:53.488Z,58.85
2024-05-09T02:09:27.085Z,58.48
2024-05-09T02:11:58.584Z,58.56
2024-05-09T02:14:29.638Z,58.95
2024-05-09T02:17:01.073Z,58.72
2024-05-09T02:19:32.141Z,58.06
2024-05-09T02:22:03.545Z,58.75
2024-05-09T02:24:37.035Z,59.78
2024-05-09T02:27:08.593Z,60.31
2024-05-09T02:29:39.624Z,59.92
2024-05-09T02:32:11.158Z,59.89
2024-05-09T02:34:42.020Z,58.84
2024-05-09T02:37:10.661Z,59.20
2024-05-09T02:39:44.019Z,58.51
2024-05-09T02:42:12.631Z,58.02
2024-05-09T02:44:43.417Z,58.66
2024-05-09T02:47:12.144Z,58.48
2024-05-09T02:49:43.210Z,59.75
2024-05-09T02:52:11.966Z,59.47
2024-05-09T02:54:45.362Z,59.68
2024-05-09T02:57:14.207Z,58.99
2024-05-09T02:59:46.201Z,59.93
2024-05-09T03:02:14.985Z,60.44
2024-05-09T03:04:45.950Z,59.44
2024-05-09T03:07:14.762Z,59.80
2024-05-09T03:09:51.980Z,60.30
2024-05-09T03:12:20.695Z,60.71
2024-05-09T03:14:53.682Z,60.97
2024-05-09T03:17:24.314Z,60.58
2024-05-09T03:19:55.695Z,60.23
2024-05-09T03:22:24.428Z,60.21
2024-05-09T03:24:57.841Z,61.58
2024-05-09T03:27:26.578Z,61.43
2024-05-09T03:29:57.364Z,60.04
2024-05-09T03:32:29.163Z,59.09
2024-05-09T03:34:57.655Z,60.55
2024-05-09T03:37:29.090Z,59.67
2024-05-09T03:40:02.931Z,61.90
2024-05-09T03:42:40.863Z,62.06
2024-05-09T03:45:09.407Z,61.27
2024-05-09T03:47:41.000Z,60.54
2024-05-09T03:50:17.626Z,61.02
2024-05-09T03:52:53.590Z,62.07
2024-05-09T03:55:24.402Z,60.81
2024-05-09T03:57:55.674Z,59.50
2024-05-09T04:00:31.313Z,59.92
2024-05-09T04:03:11.532Z,60.68
2024-05-09T04:05:42.788Z,59.72
2024-05-09T04:08:18.134Z,59.27
2024-05-09T04:10:49.278Z,59.28
2024-05-09T04:13:20.728Z,59.09
2024-05-09T04:15:49.004Z,58.47
2024-05-09T04:18:20.915Z,58.94
2024-05-09T04:20:49.379Z,59.72
2024-05-09T04:23:20.969Z,59.59
2024-05-09T04:25:51.914Z,59.36
2024-05-09T04:28:24.342Z,59.41
2024-05-09T04:30:52.525Z,60.35
2024-05-09T04:33:23.937Z,59.42
2024-05-09T04:35:53.609Z,60.17
2024-05-09T04:38:24.952Z,59.70
2024-05-09T04:40:55.868Z,61.22
2024-05-09T04:43:27.506Z,61.76
2024-05-09T04:45:55.659Z,60.91
2024-05-09T04:48:27.300Z,62.37
2024-05-09T04:50:55.647Z,61.61
2024-05-09T04:53:27.261Z,60.68
2024-05-09T04:55:58.276Z,61.12
2024-05-09T04:58:29.629Z,62.00
2024-05-09T05:00:58.057Z,61.70
2024-05-09T05:03:29.464Z,60.64
2024-05-09T05:05:57.982Z,60.41
2024-05-09T05:08:29.788Z,60.90
2024-05-09T05:11:00.973Z,60.27
2024-05-09T05:13:36.738Z,60.90
2024-05-09T05:16:09.376Z,60.64
2024-05-09T05:18:38.194Z,61.13
2024-05-09T05:21:09.730Z,61.96
2024-05-09T05:23:38.500Z,62.10
2024-05-09T05:26:12.151Z,63.19
2024-05-09T05:28:40.816Z,63.43
2024-05-09T05:31:11.797Z,63.11
2024-05-09T05:33:40.506Z,62.32
2024-05-09T05:36:12.315Z,61.39
2024-05-09T05:38:41.122Z,61.89
2024-05-09T05:41:17.620Z,61.13
2024-05-09T05:43:46.718Z,61.57
2024-05-09T05:46:17.585Z,61.38
2024-05-09T05:48:46.467Z,62.16
2024-05-09T05:51:17.482Z,61.77
2024-05-09T05:53:46.583Z,61.54
2024-05-09T05:56:20.229Z,62.93
2024-05-09T05:58:49.988Z,61.91
2024-05-09T06:01:20.908Z,62.98
2024-05-09T06:03:49.678Z,62.06
2024-05-09T06:06:20.576Z,62.58
2024-05-09T06:08:49.351Z,62.45
2024-05-09T06:11:22.838Z,62.37
2024-05-09T06:13:51.496Z,62.86
2024-05-09T06:16:22.450Z,61.20
2024-05-09T06:18:51.260Z,60.43
2024-05-09T06:21:22.488Z,60.65
2024-05-09T06:23:51.289Z,59.38
2024-05-09T06:26:24.765Z,59.25
2024-05-09T06:28:53.443Z,58.85
2024-05-09T06:31:24.357Z,57.75
2024-05-09T06:33:53.181Z,58.55
2024-05-09T06:36:24.110Z,58.43
2024-05-09T06:38:52.894Z,58.96
2024-05-09T06:41:26.465Z,57.75
2024-05-09T06:43:55.353Z,58.39
2024-05-09T06:46:26.760Z,57.94
2024-05-09T06:48:55.751Z,57.57
2024-05-09T06:51:26.762Z,56.89
2024-05-09T06:53:55.751Z,56.54
2024-05-09T06:56:29.440Z,56.99
2024-05-09T06:58:58.180Z,57.07
2024-05-09T07:01:29.069Z,56.47
2024-05-09T07:03:57.924Z,56.58
2024-05-09T07:06:28.829Z,56.41
2024-05-09T07:08:57.508Z,55.71
2024-05-09T07:11:31.664Z,56.76
2024-05-09T07:14:00.610Z,56.33
2024-05-09T07:16:31.461Z,55.91
2024-05-09T07:19:00.251Z,55.23
2024-05-09T07:21:32.447Z,54.42
2024-05-09T07:24:02.278Z,54.78
2024-05-09T07:26:35.853Z,55.94
2024-05-09T07:29:04.903Z,55.72
2024-05-09T07:31:35.782Z,55.51
2024-05-09T07:34:04.637Z,56.09
2024-05-09T07:36:35.501Z,55.28
2024-05-09T07:39:05.933Z,54.60
2024-05-09T07:41:39.833Z,54.59
2024-05-09T07:44:08.889Z,55.88
2024-05-09T07:47:47.664Z,54.93
2024-05-09T07:53:25.392Z,54.11
2024-05-09T07:54:51.014Z,54.91
2024-05-09T07:57:24.635Z,55.05
2024-05-09T07:59:53.644Z,54.21
2024-05-09T08:02:24.551Z,53.62
2024-05-09T08:04:53.643Z,54.64
2024-05-09T08:07:24.682Z,53.21
2024-05-09T08:09:54.229Z,53.58
2024-05-09T08:12:27.917Z,53.82
2024-05-09T08:14:56.648Z,53.92
2024-05-09T08:17:27.621Z,53.97
2024-05-09T08:19:56.397Z,53.76
2024-05-09T08:22:30.646Z,53.96
2024-05-09T08:24:59.519Z,53.81
2024-05-09T08:27:32.986Z,53.94
2024-05-09T08:30:01.841Z,53.89
2024-05-09T08:32:34.868Z,53.90
2024-05-09T08:35:03.949Z,53.26
2024-05-09T08:37:38.739Z,53.66
2024-05-09T08:40:16.674Z,53.46
2024-05-09T08:42:56.236Z,52.04
2024-05-09T08:45:25.995Z,53.95
2024-05-09T08:47:57.904Z,53.66
2024-05-09T08:50:35.375Z,52.50
2024-05-09T08:53:09.639Z,53.15
2024-05-09T08:55:41.787Z,53.03
2024-05-09T08:58:19.693Z,53.53
2024-05-09T09:00:49.784Z,53.10
2024-05-09T09:03:25.071Z,53.40
2024-05-09T09:06:05.951Z,52.71
2024-05-09T09:08:36.761Z,52.81
2024-05-09T09:11:05.942Z,52.67
2024-05-09T09:13:39.318Z,52.06
2024-05-09T09:16:08.611Z,52.12
2024-05-09T09:18:39.586Z,52.29
2024-05-09T09:21:11.610Z,52.17
2024-05-09T09:23:42.983Z,52.67
2024-05-09T09:26:16.812Z,52.53
2024-05-09T09:28:50.885Z,52.52
2024-05-09T09:31:20.000Z,52.77
2024-05-09T09:33:51.054Z,53.14
2024-05-09T09:36:19.997Z,52.88
2024-05-09T09:38:51.390Z,52.78
2024-05-09T09:41:26.022Z,53.27
2024-05-09T09:44:01.594Z,53.34
2024-05-09T09:46:31.276Z,53.11
2024-05-09T09:49:02.200Z,53.59
2024-05-09T09:51:32.258Z,53.68
2024-05-09T09:54:06.455Z,53.43
2024-05-09T09:56:39.219Z,53.66
2024-05-09T09:59:15.515Z,53.79
2024-05-09T10:01:46.031Z,54.09
2024-05-09T10:04:19.149Z,53.43
2024-05-09T10:06:53.201Z,53.27
2024-05-09T10:09:24.589Z,53.79
2024-05-09T10:11:59.739Z,53.91
2024-05-09T10:14:42.494Z,53.88
2024-05-09T10:17:11.309Z,54.20
2024-05-09T10:19:42.172Z,54.33
2024-05-09T10:22:11.241Z,54.16
2024-05-09T10:24:53.396Z,54.52
2024-05-09T10:27:29.465Z,53.83
2024-05-09T10:30:09.108Z,53.87
2024-05-09T10:32:44.999Z,54.29
2024-05-09T10:35:16.583Z,54.65
2024-05-09T10:37:46.744Z,55.09
2024-05-09T10:40:26.017Z,55.39
2024-05-09T10:43:04.534Z,54.48
2024-05-09T10:45:41.695Z,54.41
2024-05-09T10:48:11.246Z,53.86
2024-05-09T10:50:43.930Z,54.73
2024-05-09T10:53:12.707Z,52.71
2024-05-09T10:55:43.469Z,52.95
2024-05-09T10:58:18.304Z,53.02
2024-05-09T11:00:52.110Z,53.17
2024-05-09T11:03:21.672Z,52.62
2024-05-09T11:05:52.836Z,53.23
2024-05-09T11:08:22.618Z,53.31
2024-05-09T11:10:55.272Z,52.17
2024-05-09T11:13:28.123Z,52.37
2024-05-09T11:16:02.885Z,52.86
2024-05-09T11:18:36.496Z,52.86
2024-05-09T11:21:15.756Z,52.21
2024-05-09T11:23:44.429Z,52.62
2024-05-09T11:26:15.730Z,53.30
2024-05-09T11:28:45.629Z,52.61
2024-05-09T11:31:19.420Z,52.13
2024-05-09T11:33:48.393Z,52.19
2024-05-09T11:36:19.362Z,51.88
2024-05-09T11:38:48.192Z,51.79
2024-05-09T11:41:21.074Z,51.73
2024-05-09T11:43:50.950Z,52.71
2024-05-09T11:46:24.914Z,51.70
2024-05-09T11:48:56.488Z,51.05
2024-05-09T11:51:24.874Z,51.08
2024-05-09T11:53:57.288Z,52.50
2024-05-09T11:56:25.584Z,52.49
2024-05-09T11:58:57.095Z,51.62
2024-05-09T12:01:28.352Z,51.88
2024-05-09T12:04:01.385Z,52.52
2024-05-09T12:06:30.187Z,52.85
2024-05-09T12:09:01.712Z,52.15
2024-05-09T12:11:30.139Z,51.67
2024-05-09T12:14:01.331Z,51.69
2024-05-09T12:16:32.492Z,51.67
2024-05-09T12:19:04.040Z,52.33
2024-05-09T12:21:32.558Z,52.30
2024-05-09T12:24:03.827Z,52.05
2024-05-09T12:26:32.554Z,51.84
2024-05-09T12:29:03.748Z,52.62
2024-05-09T12:31:34.786Z,51.99
2024-05-09T12:34:06.193Z,51.71
2024-05-09T12:36:34.740Z,51.31
2024-05-09T12:39:06.450Z,51.60
2024-05-09T12:41:34.790Z,50.67
2024-05-09T12:44:05.990Z,52.23
2024-05-09T12:46:37.097Z,52.29
2024-05-09T12:49:08.628Z,51.94
2024-05-09T12:51:36.992Z,51.18
2024-05-09T12:54:08.373Z,51.94
2024-05-09T12:56:36.764Z,51.92
2024-05-09T12:59:07.929Z,51.74
2024-05-09T13:01:38.936Z,52.16
2024-05-09T13:04:10.462Z,51.20
2024-05-09T13:06:39.016Z,51.18
2024-05-09T13:09:10.311Z,51.14
2024-05-09T13:11:38.873Z,51.66
2024-05-09T13:14:10.146Z,51.57
2024-05-09T13:16:41.197Z,51.72
2024-05-09T13:19:12.633Z,51.51
2024-05-09T13:21:40.954Z,52.48
2024-05-09T13:24:12.228Z,52.42
2024-05-09T13:26:40.736Z,52.51
2024-05-09T13:29:11.928Z,52.65
2024-05-09T13:31:42.958Z,52.24
2024-05-09T13:34:14.345Z,52.93
2024-05-09T13:36:42.941Z,52.70
2024-05-09T13:39:14.153Z,52.77
2024-05-09T13:41:42.476Z,52.89
2024-05-09T13:44:13.721Z,53.08
2024-05-09T13:46:44.906Z,52.80
2024-05-09T13:49:17.591Z,52.76
2024-05-09T13:51:46.110Z,52.25
2024-05-09T13:54:20.179Z,51.96
2024-05-09T13:56:52.200Z,51.91
2024-05-09T13:59:23.448Z,52.65
2024-05-09T14:01:54.644Z,52.83
2024-05-09T14:04:26.193Z,52.99
2024-05-09T14:06:54.719Z,52.38
2024-05-09T14:09:25.885Z,53.25
2024-05-09T14:11:54.229Z,53.62
2024-05-09T14:14:25.514Z,54.04
2024-05-09T14:16:56.632Z,54.77
2024-05-09T14:19:28.225Z,53.83
2024-05-09T14:21:56.634Z,54.17
2024-05-09T14:24:27.791Z,54.30
2024-05-09T14:26:56.148Z,53.50
2024-05-09T14:29:27.351Z,54.22
2024-05-09T14:31:58.287Z,53.45
2024-05-09T14:34:29.803Z,53.48
2024-05-09T14:36:59.054Z,53.30
2024-05-09T14:39:30.311Z,53.15
2024-05-09T14:41:58.624Z,53.13
2024-05-09T14:44:29.776Z,53.25
2024-05-09T14:47:01.115Z,53.17
2024-05-09T14:49:32.535Z,53.16
2024-05-09T14:52:00.869Z,53.07
2024-05-09T14:54:32.173Z,52.87
2024-05-09T14:57:01.154Z,52.92
2024-05-09T14:59:32.400Z,52.26
2024-05-09T15:02:03.676Z,52.47
2024-05-09T15:04:35.076Z,52.66
2024-05-09T15:07:03.655Z,52.83
2024-05-09T15:09:37.944Z,51.77
2024-05-09T15:12:09.520Z,52.88
2024-05-09T15:14:40.800Z,52.08
2024-05-09T15:17:11.905Z,53.08
2024-05-09T15:19:43.501Z,53.20
2024-05-09T15:22:16.489Z,53.42
2024-05-09T15:24:48.611Z,53.72
2024-05-09T15:27:18.692Z,53.77
2024-05-09T15:29:49.934Z,53.71
2024-05-09T15:32:20.881Z,53.44
2024-05-09T15:34:52.129Z,53.80
2024-05-09T15:37:20.768Z,53.50
2024-05-09T15:39:52.443Z,53.69
2024-05-09T15:42:20.870Z,53.61
2024-05-09T15:44:53.209Z,53.23
2024-05-09T15:47:24.454Z,53.58
2024-05-09T15:49:55.912Z,54.00
2024-05-09T15:52:24.343Z,53.65
2024-05-09T15:54:55.596Z,54.07
2024-05-09T15:57:25.200Z,53.72
2024-05-09T15:59:56.458Z,53.45
2024-05-09T16:02:27.567Z,53.73
2024-05-09T16:04:59.082Z,53.63
2024-05-09T16:07:27.533Z,53.86
2024-05-09T16:09:58.825Z,53.77
2024-05-09T16:12:27.131Z,53.84
2024-05-09T16:14:58.479Z,53.81
2024-05-09T16:17:29.593Z,53.75
2024-05-09T16:20:01.140Z,54.04
2024-05-09T16:22:29.515Z,54.56
2024-05-09T16:25:00.744Z,54.74
2024-05-09T16:27:29.418Z,55.20
2024-05-09T16:30:04.191Z,55.50
2024-05-09T16:32:40.987Z,55.39
2024-05-09T16:35:12.427Z,55.07
2024-05-09T16:37:40.740Z,55.12
2024-05-09T16:40:22.014Z,54.48
2024-05-09T16:42:58.824Z,54.67
2024-05-09T16:45:30.701Z,54.09
2024-05-09T16:48:03.116Z,54.34
2024-05-09T16:50:36.016Z,53.98
2024-05-09T16:53:05.983Z,53.99
2024-05-09T16:55:38.583Z,53.78
2024-05-09T16:58:08.567Z,53.56
2024-05-09T17:00:43.396Z,53.67
2024-05-09T17:03:17.275Z,53.52
2024-05-09T17:05:50.759Z,53.58
2024-05-09T17:08:19.989Z,53.59
2024-05-09T17:10:51.564Z,53.51
2024-05-09T17:13:22.962Z,53.29
2024-05-09T17:15:54.482Z,53.43
2024-05-09T17:18:28.474Z,53.46
2024-05-09T17:21:00.102Z,53.33
2024-05-09T17:23:29.222Z,53.47
2024-05-09T17:26:01.282Z,53.36
2024-05-09T17:28:29.916Z,53.54
2024-05-09T17:31:01.333Z,53.22
2024-05-09T17:33:32.454Z,53.53
2024-05-09T17:36:03.986Z,53.57
2024-05-09T17:38:32.271Z,53.70
2024-05-09T17:41:03.593Z,53.50
2024-05-09T17:43:31.842Z,53.68
2024-05-09T17:46:03.793Z,53.87
2024-05-09T17:48:35.068Z,53.74
2024-05-09T17:51:06.562Z,53.61
2024-05-09T17:53:34.718Z,53.93
2024-05-09T17:56:06.266Z,53.74
2024-05-09T17:58:34.473Z,53.78
2024-05-09T18:01:06.273Z,53.66
2024-05-09T18:03:37.482Z,54.10
2024-05-09T18:06:10.182Z,54.01
2024-05-09T18:08:38.484Z,54.17
2024-05-09T18:11:09.764Z,54.13
2024-05-09T18:13:38.156Z,53.76
2024-05-09T18:16:09.934Z,54.09
2024-05-09T18:18:41.527Z,54.09
2024-05-09T18:21:12.906Z,54.06
2024-05-09T18:23:41.134Z,54.28
2024-05-09T18:26:12.544Z,53.84
2024-05-09T18:28:41.155Z,53.81
2024-05-09T18:31:12.400Z,54.06
2024-05-09T18:33:43.298Z,53.79
2024-05-09T18:36:14.627Z,53.86
2024-05-09T18:38:42.948Z,53.67
2024-05-09T18:41:14.520Z,54.09
2024-05-09T18:43:45.412Z,53.86
2024-05-09T18:46:20.068Z,54.04
2024-05-09T18:48:51.918Z,54.36
2024-05-09T18:51:23.500Z,53.85
2024-05-09T18:53:52.614Z,54.30
2024-05-09T18:56:23.929Z,54.47
2024-05-09T18:58:54.951Z,54.36
2024-05-09T19:01:23.561Z,54.64
2024-05-09T19:03:58.198Z,54.48
2024-05-09T19:06:27.019Z,54.49
2024-05-09T19:08:58.755Z,54.70
2024-05-09T19:11:27.565Z,55.01
2024-05-09T19:14:03.696Z,54.72
2024-05-09T19:16:32.404Z,54.92
2024-05-09T19:19:07.638Z,54.82
2024-05-09T19:21:37.961Z,55.01
2024-05-09T19:24:10.546Z,55.34
2024-05-09T19:26:39.313Z,54.97
2024-05-09T19:29:10.327Z,55.03
2024-05-09T19:31:39.087Z,55.50
2024-05-09T19:34:13.229Z,56.32
2024-05-09T19:36:43.285Z,55.65
2024-05-09T19:39:14.619Z,57.00
2024-05-09T19:41:43.435Z,55.77
2024-05-09T19:44:14.193Z,55.87
2024-05-09T19:46:44.251Z,56.00
2024-05-09T19:49:18.331Z,56.03
2024-05-09T19:51:47.143Z,56.14
2024-05-09T19:54:17.982Z,56.21
2024-05-09T19:56:47.873Z,57.11
2024-05-09T19:59:18.737Z,57.20
2024-05-09T20:01:48.470Z,56.70
2024-05-09T20:04:22.358Z,56.76
2024-05-09T20:06:51.842Z,56.68
2024-05-09T20:09:22.635Z,57.79
2024-05-09T20:11:53.139Z,56.56
2024-05-09T20:14:24.134Z,56.78
2024-05-09T20:16:54.118Z,56.47
2024-05-09T20:19:27.661Z,56.96
2024-05-09T20:21:56.516Z,57.67
2024-05-09T20:24:27.307Z,56.78
2024-05-09T20:26:56.093Z,57.77
2024-05-09T20:29:27.290Z,57.35
2024-05-09T20:31:55.966Z,56.92
2024-05-09T20:34:29.450Z,57.41
2024-05-09T20:36:58.157Z,56.85
2024-05-09T20:39:29.562Z,57.10
2024-05-09T20:41:58.523Z,57.42
2024-05-09T20:44:29.509Z,56.88
2024-05-09T20:46:58.251Z,56.92
2024-05-09T20:49:32.555Z,57.38
2024-05-09T20:52:01.496Z,56.83
2024-05-09T20:54:32.669Z,57.02
2024-05-09T20:57:02.954Z,56.97
2024-05-09T20:59:34.213Z,57.05
2024-05-09T21:02:03.054Z,56.91
2024-05-09T21:04:36.949Z,57.04
2024-05-09T21:07:05.912Z,57.18
2024-05-09T21:09:36.757Z,56.96
2024-05-09T21:12:05.835Z,57.09
2024-05-09T21:14:36.995Z,57.40
2024-05-09T21:17:06.016Z,56.96
2024-05-09T21:19:39.673Z,57.04
2024-05-09T21:22:08.360Z,56.96
2024-05-09T21:24:39.316Z,57.33
2024-05-09T21:27:08.056Z,57.26
2024-05-09T21:29:38.991Z,57.17
2024-05-09T21:32:08.307Z,57.15
2024-05-09T21:34:41.805Z,57.39
2024-05-09T21:37:10.861Z,57.21
2024-05-09T21:39:41.843Z,57.36
2024-05-09T21:42:10.536Z,57.46
2024-05-09T21:44:41.295Z,58.34
2024-05-09T21:47:10.112Z,59.32
2024-05-09T21:49:43.833Z,59.04
2024-05-09T21:52:12.914Z,58.39
2024-05-09T21:54:43.792Z,58.25
2024-05-09T21:57:14.624Z,58.33
2024-05-09T21:59:45.403Z,57.94
2024-05-09T22:02:14.163Z,58.11
2024-05-09T22:04:47.903Z,58.31
2024-05-09T22:07:16.877Z,58.09
2024-05-09T22:09:47.942Z,58.37
2024-05-09T22:12:16.678Z,58.26
2024-05-09T22:14:47.429Z,58.45
2024-05-09T22:17:16.410Z,58.32
2024-05-09T22:19:52.500Z,58.44
2024-05-09T22:22:21.473Z,58.79
2024-05-09T22:24:52.399Z,58.54
2024-05-09T22:27:21.115Z,58.57
2024-05-09T22:29:51.892Z,58.56
2024-05-09T22:32:20.715Z,59.47
2024-05-09T22:34:54.315Z,59.05
2024-05-09T22:37:23.173Z,58.63
2024-05-09T22:39:53.962Z,58.74
2024-05-09T22:42:22.601Z,58.69
2024-05-09T22:44:53.520Z,58.54
2024-05-09T22:47:22.224Z,58.51
2024-05-09T22:49:56.033Z,59.37
2024-05-09T22:52:24.712Z,58.94
2024-05-09T22:54:55.560Z,58.71
2024-05-09T22:57:24.226Z,59.09
2024-05-09T22:59:55.073Z,59.26
2024-05-09T23:02:23.983Z,59.80
2024-05-09T23:04:57.495Z,62.17
2024-05-09T23:07:26.376Z,60.82
2024-05-09T23:09:57.289Z,61.17
2024-05-09T23:12:25.891Z,61.38
2024-05-09T23:14:56.674Z,62.17
2024-05-09T23:17:25.554Z,61.34
2024-05-09T23:19:59.062Z,63.17
2024-05-09T23:22:27.764Z,62.62
2024-05-09T23:24:58.548Z,63.73
2024-05-09T23:27:27.286Z,63.98
2024-05-09T23:29:58.511Z,63.57
2024-05-09T23:32:27.848Z,63.82
2024-05-09T23:35:01.587Z,63.66
2024-05-09T23:37:30.396Z,63.70
2024-05-09T23:40:01.380Z,63.31
2024-05-09T23:42:30.540Z,64.09
2024-05-09T23:45:01.355Z,63.71
2024-05-09T23:47:30.221Z,63.69
2024-05-09T23:50:06.713Z,63.39
2024-05-09T23:52:40.120Z,63.66
2024-05-09T23:55:08.567Z,63.87
2024-05-09T23:57:39.810Z,63.09
